Time;durP1;ratioP1;P1;durP2;ratioP2;P2;SDS_P1;SDS_P2;PMS_P1;PMS_P2;Temp;Humidity;BMP_temperature;BMP_pressure;BME280_temperature;BME280_humidity;BME280_pressure;Samples;Min_cycle;Max_cycle;Signal;HPM_P1;HPM_P2
2021/04/17 00:01:56;;;;;;;4.57;4.17;;;7.50;63.00;;;;;;5049771;28;20211;-85
2021/04/17 00:04:23;;;;;;;4.63;4.23;;;7.50;63.30;;;;;;5031680;28;20185;-85
2021/04/17 00:06:50;;;;;;;6.17;4.83;;;7.50;63.10;;;;;;5049486;28;20201;-84
2021/04/17 00:09:20;;;;;;;5.30;4.90;;;7.50;63.50;;;;;;5049729;28;20208;-85
2021/04/17 00:11:46;;;;;;;5.07;4.47;;;7.40;63.80;;;;;;5048189;28;20668;-86
2021/04/17 00:14:22;;;;;;;5.90;4.80;;;7.40;63.70;;;;;;5050087;28;20189;-86
2021/04/17 00:16:49;;;;;;;4.57;4.17;;;7.40;63.30;;;;;;5045006;28;20193;-84
2021/04/17 00:19:15;;;;;;;4.73;4.00;;;7.50;63.50;;;;;;5030298;28;20410;-84
2021/04/17 00:21:40;;;;;;;5.20;4.80;;;7.50;63.60;;;;;;5030859;28;20181;-84
2021/04/17 00:24:07;;;;;;;5.33;4.83;;;7.50;63.80;;;;;;5040888;28;20181;-85
2021/04/17 00:26:34;;;;;;;5.23;4.73;;;7.40;64.00;;;;;;5030994;28;20210;-85
2021/04/17 00:29:00;;;;;;;4.80;4.40;;;7.50;64.20;;;;;;5050019;28;20246;-86
2021/04/17 00:31:27;;;;;;;4.93;4.53;;;7.50;64.30;;;;;;5048820;28;20177;-85
2021/04/17 00:33:53;;;;;;;5.00;4.40;;;7.40;64.80;;;;;;5048730;28;20183;-85
2021/04/17 00:36:18;;;;;;;5.80;4.30;;;7.30;64.90;;;;;;5049565;28;20201;-84
2021/04/17 00:38:44;;;;;;;6.00;4.57;;;7.20;65.30;;;;;;5049237;28;20177;-85
2021/04/17 00:41:10;;;;;;;5.00;4.50;;;7.20;66.00;;;;;;5013908;28;20193;-85
2021/04/17 00:43:36;;;;;;;4.70;4.30;;;7.10;66.60;;;;;;5030227;28;20241;-85
2021/04/17 00:46:02;;;;;;;4.37;3.97;;;7.00;66.30;;;;;;5029568;28;20251;-85
2021/04/17 00:48:28;;;;;;;4.10;3.80;;;7.00;65.90;;;;;;5027736;28;20185;-84
2021/04/17 00:50:54;;;;;;;5.27;4.47;;;7.10;65.50;;;;;;5028567;28;20638;-84
2021/04/17 00:53:20;;;;;;;4.50;4.10;;;7.20;65.30;;;;;;5010653;28;20204;-84
2021/04/17 00:55:46;;;;;;;4.53;4.20;;;7.10;65.30;;;;;;5028022;28;20225;-84
2021/04/17 00:58:11;;;;;;;4.70;4.30;;;7.10;65.60;;;;;;5046647;28;20205;-85
2021/04/17 01:00:38;;;;;;;4.30;3.90;;;7.00;65.70;;;;;;5048373;28;20636;-84
2021/04/17 01:03:22;;;;;;;4.60;3.93;;;6.90;65.70;;;;;;5049371;28;20189;-84
2021/04/17 01:05:53;;;;;;;4.20;3.80;;;6.90;65.60;;;;;;5047756;28;20209;-85
2021/04/17 01:09:00;;;;;;;4.07;3.67;;;7.00;65.30;;;;;;5048408;28;20168;-84
2021/04/17 01:11:43;;;;;;;4.23;3.83;;;6.90;66.00;;;;;;5048316;28;20560;-85
2021/04/17 01:14:10;;;;;;;4.40;4.00;;;6.90;66.00;;;;;;5048254;28;20215;-85
2021/04/17 01:16:36;;;;;;;4.50;3.97;;;6.90;66.00;;;;;;5048417;28;20208;-85
2021/04/17 01:19:07;;;;;;;4.47;4.07;;;6.90;65.70;;;;;;5049340;28;20522;-84
2021/04/17 01:21:34;;;;;;;4.40;4.00;;;6.80;65.50;;;;;;5048673;28;20181;-85
2021/04/17 01:24:08;;;;;;;4.80;4.30;;;6.90;65.60;;;;;;5052419;28;20181;-85
2021/04/17 01:26:34;;;;;;;4.20;3.90;;;6.80;65.70;;;;;;5049277;28;20211;-85
2021/04/17 01:29:00;;;;;;;3.83;3.53;;;6.90;65.50;;;;;;5049640;28;20230;-85
2021/04/17 01:31:30;;;;;;;5.87;3.87;;;6.90;65.30;;;;;;5049799;28;20223;-86
2021/04/17 01:33:57;;;;;;;3.70;3.40;;;6.90;65.00;;;;;;5051917;28;20161;-85
2021/04/17 01:36:24;;;;;;;4.17;3.77;;;6.90;65.10;;;;;;5057254;28;20474;-86
2021/04/17 01:39:05;;;;;;;4.30;3.90;;;6.80;65.60;;;;;;5056637;28;20189;-86
2021/04/17 01:41:35;;;;;;;3.70;3.40;;;6.80;65.80;;;;;;5057138;28;20165;-85
2021/04/17 01:44:08;;;;;;;4.00;3.70;;;6.80;65.30;;;;;;5057126;28;20196;-86
2021/04/17 01:46:40;;;;;;;3.43;3.13;;;6.80;65.20;;;;;;5056733;28;20212;-86
2021/04/17 01:49:09;;;;;;;3.70;3.40;;;6.80;65.00;;;;;;5048786;28;20193;-85
2021/04/17 01:51:38;;;;;;;4.10;3.70;;;6.80;64.90;;;;;;5048726;28;20272;-87
2021/04/17 01:54:07;;;;;;;3.90;3.60;;;6.80;64.90;;;;;;5047650;28;20208;-85
2021/04/17 01:56:34;;;;;;;4.67;3.60;;;6.70;65.00;;;;;;5048886;28;20208;-85
2021/04/17 01:59:02;;;;;;;4.20;3.80;;;6.70;65.10;;;;;;5047965;28;20181;-86
2021/04/17 02:01:28;;;;;;;4.00;3.70;;;6.60;65.10;;;;;;5048971;28;20177;-85
2021/04/17 02:03:54;;;;;;;4.20;3.80;;;6.60;65.20;;;;;;5051485;28;20187;-86
2021/04/17 02:06:20;;;;;;;4.50;3.90;;;6.60;65.40;;;;;;5057219;28;20233;-87
2021/04/17 02:08:46;;;;;;;4.80;4.40;;;6.60;65.20;;;;;;5057381;28;20176;-85
2021/04/17 02:11:12;;;;;;;4.43;4.07;;;6.60;65.30;;;;;;5039524;28;20194;-88
2021/04/17 02:13:39;;;;;;;4.37;3.97;;;6.60;65.30;;;;;;5054438;28;20232;-86
2021/04/17 02:16:19;;;;;;;3.93;3.63;;;6.60;65.30;;;;;;5047676;28;20201;-85
2021/04/17 02:18:48;;;;;;;3.87;3.57;;;6.60;65.00;;;;;;5047259;28;20321;-85
2021/04/17 02:21:20;;;;;;;4.63;4.23;;;6.60;65.20;;;;;;5029206;28;20185;-87
2021/04/17 02:23:47;;;;;;;5.37;4.87;;;6.60;65.30;;;;;;5046755;28;20245;-84
2021/04/17 02:26:13;;;;;;;5.07;4.57;;;6.60;65.20;;;;;;5046049;28;20212;-86
2021/04/17 02:28:39;;;;;;;5.10;4.60;;;6.60;65.20;;;;;;5047058;28;20252;-86
2021/04/17 02:31:04;;;;;;;5.10;4.70;;;6.50;65.60;;;;;;5048046;28;20184;-85
2021/04/17 02:33:30;;;;;;;5.07;4.57;;;6.50;65.70;;;;;;5046847;28;20173;-85
2021/04/17 02:35:56;;;;;;;5.10;4.60;;;6.40;65.70;;;;;;5046362;28;20204;-85
2021/04/17 02:38:22;;;;;;;5.03;4.63;;;6.40;65.90;;;;;;5045458;28;20189;-86
2021/04/17 02:40:47;;;;;;;5.10;4.70;;;6.50;65.60;;;;;;5030755;28;20182;-85
2021/04/17 02:43:13;;;;;;;5.00;4.50;;;6.50;65.70;;;;;;5046960;28;20185;-85
2021/04/17 02:45:39;;;;;;;5.30;4.80;;;6.50;65.80;;;;;;5046859;28;20215;-85
2021/04/17 02:48:05;;;;;;;5.00;4.60;;;6.40;66.00;;;;;;5046487;28;20248;-87
2021/04/17 02:50:31;;;;;;;5.60;4.93;;;6.40;65.90;;;;;;5030231;28;20263;-85
2021/04/17 02:52:57;;;;;;;6.07;5.50;;;6.30;66.40;;;;;;5029957;28;20240;-85
2021/04/17 02:55:23;;;;;;;6.00;5.50;;;6.30;66.70;;;;;;5029793;28;20216;-86
2021/04/17 02:57:49;;;;;;;5.10;4.60;;;6.10;67.20;;;;;;5029474;28;20211;-86
2021/04/17 03:00:18;;;;;;;5.07;4.67;;;6.10;67.60;;;;;;5030089;28;20185;-86
2021/04/17 03:02:44;;;;;;;5.83;4.60;;;6.00;67.60;;;;;;5047342;28;20173;-86
2021/04/17 03:05:11;;;;;;;4.70;4.30;;;6.10;67.30;;;;;;5047092;28;20203;-86
2021/04/17 03:07:36;;;;;;;4.87;4.47;;;6.20;67.20;;;;;;5046716;28;20245;-85
2021/04/17 03:10:08;;;;;;;5.43;4.93;;;6.20;67.00;;;;;;5028695;28;20213;-85
2021/04/17 03:12:34;;;;;;;5.43;4.93;;;6.20;66.90;;;;;;5047107;28;20542;-85
2021/04/17 03:15:01;;;;;;;4.97;4.57;;;6.20;66.50;;;;;;5046675;28;20278;-87
2021/04/17 03:17:27;;;;;;;5.03;4.60;;;6.10;66.50;;;;;;5037404;28;20197;-85
2021/04/17 03:19:52;;;;;;;5.70;5.20;;;6.10;66.60;;;;;;5027457;28;20237;-86
2021/04/17 03:22:18;;;;;;;5.70;5.30;;;6.20;66.30;;;;;;5010631;28;20232;-87
2021/04/17 03:24:44;;;;;;;6.30;5.70;;;6.10;66.50;;;;;;5023001;28;20276;-86
2021/04/17 03:27:10;;;;;;;6.07;5.57;;;6.20;66.50;;;;;;5028081;28;20239;-87
2021/04/17 03:29:35;;;;;;;5.63;4.93;;;6.10;66.20;;;;;;5047327;28;20180;-85
2021/04/17 03:32:02;;;;;;;5.50;5.00;;;6.10;65.90;;;;;;5046347;28;20217;-86
2021/04/17 03:34:28;;;;;;;6.23;5.57;;;6.10;65.80;;;;;;5050017;28;20204;-88
2021/04/17 03:36:55;;;;;;;5.50;5.10;;;6.00;65.90;;;;;;5049722;28;20188;-86
2021/04/17 03:39:20;;;;;;;7.13;6.33;;;6.10;66.10;;;;;;5046651;28;20170;-86
2021/04/17 03:41:46;;;;;;;6.87;6.27;;;5.90;66.80;;;;;;5030830;28;20177;-85
2021/04/17 03:44:12;;;;;;;6.40;5.80;;;5.80;68.20;;;;;;5030331;28;20181;-85
2021/04/17 03:46:38;;;;;;;6.03;5.43;;;5.70;67.80;;;;;;5031052;28;20205;-87
2021/04/17 03:49:04;;;;;;;5.63;5.13;;;5.60;68.00;;;;;;5040184;28;20199;-85
2021/04/17 03:51:30;;;;;;;5.63;5.13;;;5.60;68.10;;;;;;5050259;28;20177;-85
2021/04/17 03:53:56;;;;;;;6.67;6.07;;;5.60;68.10;;;;;;5050591;28;20181;-85
2021/04/17 03:56:22;;;;;;;5.50;5.10;;;5.60;68.20;;;;;;5049862;28;20219;-85
2021/04/17 03:58:48;;;;;;;5.63;5.13;;;5.50;68.30;;;;;;5050339;28;20200;-85
2021/04/17 04:01:14;;;;;;;5.93;5.43;;;5.50;68.40;;;;;;5051584;28;20196;-85
2021/04/17 04:03:40;;;;;;;5.70;5.20;;;5.50;68.20;;;;;;5033753;28;20185;-85
2021/04/17 04:06:06;;;;;;;5.07;4.67;;;5.50;67.90;;;;;;5043041;28;20224;-87
2021/04/17 04:08:31;;;;;;;5.37;4.93;;;5.50;67.70;;;;;;5049343;28;20260;-86
2021/04/17 04:10:57;;;;;;;5.33;4.83;;;5.50;67.80;;;;;;5050782;28;20200;-86
2021/04/17 04:13:23;;;;;;;6.00;5.37;;;5.50;68.00;;;;;;5050221;28;20181;-87
2021/04/17 04:15:49;;;;;;;5.80;5.20;;;5.50;67.80;;;;;;5051307;28;20219;-88
2021/04/17 04:18:15;;;;;;;5.37;4.97;;;5.50;67.60;;;;;;5019005;28;20190;-85
2021/04/17 04:20:40;;;;;;;5.80;5.30;;;5.50;67.50;;;;;;5030695;28;20188;-85
2021/04/17 04:23:06;;;;;;;5.60;5.13;;;5.50;67.60;;;;;;5034970;28;20180;-85
2021/04/17 04:25:33;;;;;;;5.67;5.17;;;5.40;67.90;;;;;;5052210;28;20253;-85
2021/04/17 04:27:59;;;;;;;5.73;5.10;;;5.50;67.70;;;;;;5051879;28;20185;-88
2021/04/17 04:30:25;;;;;;;7.47;5.23;;;5.50;67.90;;;;;;5051029;28;20215;-86
2021/04/17 04:32:52;;;;;;;5.87;5.27;;;5.40;68.00;;;;;;5051652;28;20181;-86
2021/04/17 04:35:18;;;;;;;6.07;4.90;;;5.40;68.00;;;;;;5053402;28;20217;-86
2021/04/17 04:37:43;;;;;;;5.53;5.00;;;5.40;67.70;;;;;;5051173;28;20192;-85
2021/04/17 04:40:10;;;;;;;5.93;5.33;;;5.30;67.50;;;;;;5044147;28;20196;-86
2021/04/17 04:42:37;;;;;;;5.57;5.07;;;5.30;68.00;;;;;;5050884;28;20180;-87
2021/04/17 04:45:06;;;;;;;5.60;5.10;;;5.30;68.10;;;;;;5050007;28;20191;-85
2021/04/17 04:47:33;;;;;;;15.37;5.53;;;5.20;68.10;;;;;;5052105;28;20177;-86
2021/04/17 04:49:58;;;;;;;5.97;4.83;;;5.30;68.30;;;;;;5051918;28;20241;-86
2021/04/17 04:52:24;;;;;;;5.67;5.17;;;5.20;67.90;;;;;;5050808;28;20177;-85
2021/04/17 04:54:50;;;;;;;7.50;5.07;;;5.20;68.50;;;;;;5050250;28;20207;-85
2021/04/17 04:57:16;;;;;;;8.00;5.27;;;5.10;68.60;;;;;;5050182;28;20208;-85
2021/04/17 04:59:41;;;;;;;7.60;5.90;;;5.20;68.50;;;;;;5050050;28;20188;-87
2021/04/17 05:02:07;;;;;;;5.93;5.30;;;4.90;69.70;;;;;;5049091;28;20200;-85
2021/04/17 05:04:33;;;;;;;6.60;5.47;;;4.90;69.70;;;;;;5049821;28;20184;-85
2021/04/17 05:06:59;;;;;;;6.47;5.53;;;5.00;69.20;;;;;;5049229;28;20215;-86
2021/04/17 05:09:25;;;;;;;5.73;5.13;;;5.10;68.90;;;;;;5050675;28;20668;-85
2021/04/17 05:11:50;;;;;;;5.40;4.90;;;5.10;68.80;;;;;;5041110;28;20181;-85
2021/04/17 05:14:16;;;;;;;6.30;5.70;;;5.10;68.70;;;;;;5048953;28;20187;-85
2021/04/17 05:16:42;;;;;;;5.83;5.33;;;5.10;68.50;;;;;;5046876;28;20201;-85
2021/04/17 05:19:09;;;;;;;5.73;5.13;;;5.10;68.60;;;;;;5030089;28;20316;-85
2021/04/17 05:21:34;;;;;;;5.87;5.10;;;5.20;68.50;;;;;;5030778;28;20631;-86
2021/04/17 05:24:00;;;;;;;5.33;4.87;;;5.20;68.60;;;;;;5030836;28;20188;-86
2021/04/17 05:26:27;;;;;;;6.43;5.83;;;5.20;68.70;;;;;;5028469;28;20308;-86
2021/04/17 05:28:52;;;;;;;6.80;5.43;;;5.20;68.80;;;;;;5031147;28;20245;-85
2021/04/17 05:31:18;;;;;;;5.70;5.20;;;5.20;68.90;;;;;;5037553;28;20204;-86
2021/04/17 05:33:44;;;;;;;6.00;5.30;;;5.20;68.60;;;;;;5049367;28;20192;-86
2021/04/17 05:36:09;;;;;;;6.00;5.40;;;5.20;68.50;;;;;;5051071;28;20196;-87
2021/04/17 05:38:35;;;;;;;5.93;5.33;;;5.20;68.50;;;;;;5049939;28;20248;-88
2021/04/17 05:41:01;;;;;;;6.47;5.87;;;5.30;68.50;;;;;;5031060;28;20257;-86
2021/04/17 05:43:27;;;;;;;7.77;6.17;;;5.30;68.80;;;;;;5030691;28;20193;-86
2021/04/17 05:45:52;;;;;;;6.73;6.13;;;5.20;69.50;;;;;;5012121;28;20260;-86
2021/04/17 05:48:18;;;;;;;7.07;6.37;;;5.20;69.20;;;;;;5012738;28;20196;-86
2021/04/17 05:50:44;;;;;;;6.33;5.73;;;5.20;69.60;;;;;;5030022;28;20201;-86
2021/04/17 05:53:10;;;;;;;7.60;6.57;;;5.20;69.60;;;;;;5029832;28;20189;-87
2021/04/17 05:55:35;;;;;;;7.97;7.17;;;5.30;69.80;;;;;;5048008;28;20216;-84
2021/04/17 05:58:02;;;;;;;6.93;6.27;;;5.10;71.10;;;;;;5045418;28;20832;-84
2021/04/17 06:00:28;;;;;;;6.93;6.33;;;5.00;71.70;;;;;;5044818;28;20181;-84
2021/04/17 06:02:54;;;;;;;7.10;6.30;;;5.10;71.40;;;;;;5029124;28;20710;-84
2021/04/17 06:05:21;;;;;;;7.40;6.57;;;5.10;71.00;;;;;;5048254;28;20204;-84
2021/04/17 06:07:46;;;;;;;7.43;6.67;;;5.20;71.00;;;;;;5043762;28;20185;-84
2021/04/17 06:10:13;;;;;;;7.80;7.07;;;5.30;70.80;;;;;;5044414;28;20183;-85
2021/04/17 06:12:39;;;;;;;8.10;7.03;;;5.50;70.40;;;;;;5028604;28;20181;-85
2021/04/17 06:15:07;;;;;;;7.23;6.63;;;5.50;70.30;;;;;;5050061;28;20197;-90
2021/04/17 06:17:33;;;;;;;8.40;7.50;;;5.60;70.30;;;;;;5040770;28;20188;-90
2021/04/17 06:19:59;;;;;;;8.07;7.43;;;5.80;69.60;;;;;;5016874;28;20177;-89
2021/04/17 06:22:25;;;;;;;8.27;6.80;;;5.80;70.10;;;;;;5038908;28;20747;-91
2021/04/17 06:24:54;;;;;;;7.60;6.80;;;5.80;70.20;;;;;;5054461;28;20212;-89
2021/04/17 06:27:21;;;;;;;7.57;6.90;;;5.90;69.80;;;;;;5053214;28;20216;-88
2021/04/17 06:29:47;;;;;;;7.67;6.90;;;6.00;69.40;;;;;;5034253;28;20177;-88
2021/04/17 06:35:17;;;;;;;9.10;8.20;;;6.20;69.60;;;;;;5052037;28;20213;-93
2021/04/17 06:37:49;;;;;;;8.00;7.20;;;6.20;71.10;;;;;;5033023;28;20188;-89
2021/04/17 06:40:15;;;;;;;7.80;7.07;;;6.30;70.90;;;;;;5051449;28;20177;-90
2021/04/17 06:42:45;;;;;;;8.47;7.60;;;6.30;71.20;;;;;;5053021;28;20197;-90
2021/04/17 06:45:13;;;;;;;9.03;8.10;;;6.40;71.20;;;;;;5053367;28;20256;-88
2021/04/17 06:47:40;;;;;;;10.73;8.20;;;6.50;71.90;;;;;;5042005;28;20224;-91
2021/04/17 06:50:11;;;;;;;8.17;7.43;;;6.40;72.20;;;;;;5053826;28;20204;-91
2021/04/17 06:52:38;;;;;;;9.07;8.37;;;6.50;71.60;;;;;;5054388;28;20188;-87
2021/04/17 06:55:15;;;;;;;12.70;8.33;;;6.70;72.10;;;;;;5052703;28;20205;-92
2021/04/17 06:57:44;;;;;;;9.37;8.47;;;6.70;71.90;;;;;;5051024;28;20243;-89
2021/04/17 07:00:13;;;;;;;8.87;8.10;;;6.80;71.80;;;;;;5034418;28;20215;-91
2021/04/17 07:02:39;;;;;;;8.57;7.70;;;6.80;70.20;;;;;;5034785;28;20181;-88
2021/04/17 07:05:16;;;;;;;8.87;8.07;;;6.80;71.00;;;;;;5052606;28;20231;-90
2021/04/17 07:07:42;;;;;;;9.00;7.97;;;7.00;70.00;;;;;;5050387;28;20188;-88
2021/04/17 07:10:08;;;;;;;8.70;7.90;;;7.10;69.70;;;;;;5036169;28;20177;-88
2021/04/17 07:12:34;;;;;;;8.00;7.10;;;7.20;68.10;;;;;;5051085;28;20191;-87
2021/04/17 07:15:42;;;;;;;9.23;8.23;;;7.40;67.50;;;;;;5053066;28;20196;-90
2021/04/17 07:18:26;;;;;;;8.87;7.97;;;7.40;65.90;;;;;;5032074;28;20188;-93
2021/04/17 07:20:57;;;;;;;9.07;8.27;;;7.50;65.10;;;;;;5052765;28;20177;-89
2021/04/17 07:23:35;;;;;;;8.77;8.07;;;7.40;65.10;;;;;;5035028;28;20181;-88
2021/04/17 07:26:07;;;;;;;8.27;7.47;;;7.60;64.90;;;;;;5051027;28;20281;-88
2021/04/17 07:28:35;;;;;;;9.37;8.23;;;7.60;65.70;;;;;;5052092;28;20185;-89
2021/04/17 07:31:04;;;;;;;9.63;8.73;;;7.50;64.70;;;;;;5033842;28;20180;-88
2021/04/17 07:33:31;;;;;;;9.13;8.17;;;7.50;64.70;;;;;;5036151;28;20181;-91
2021/04/17 07:36:00;;;;;;;8.70;7.90;;;7.70;65.70;;;;;;5035400;28;20188;-89
2021/04/17 07:38:38;;;;;;;8.70;7.90;;;7.90;63.30;;;;;;5050608;28;20189;-88
2021/04/17 07:41:43;;;;;;;9.00;8.20;;;8.10;62.40;;;;;;5032056;28;20201;-91
2021/04/17 07:44:12;;;;;;;9.53;7.67;;;8.20;62.70;;;;;;5022451;28;20242;-90
2021/04/17 07:46:44;;;;;;;9.37;7.43;;;8.30;62.30;;;;;;5039462;28;20204;-89
2021/04/17 07:49:12;;;;;;;8.77;7.03;;;8.50;61.30;;;;;;5024193;28;20181;-88
2021/04/17 07:52:13;;;;;;;9.67;7.90;;;8.50;61.50;;;;;;5027837;28;20186;-88
2021/04/17 07:54:40;;;;;;;8.90;6.53;;;8.40;61.20;;;;;;5047031;28;20177;-91
2021/04/17 07:57:12;;;;;;;8.33;6.17;;;8.50;58.30;;;;;;5028275;28;20220;-90
2021/04/17 07:59:39;;;;;;;38.57;7.43;;;8.40;58.60;;;;;;5040142;28;20161;-89
2021/04/17 08:02:08;;;;;;;30.53;7.03;;;8.60;57.10;;;;;;5012649;28;20244;-89
2021/04/17 08:04:42;;;;;;;6.17;5.63;;;8.60;57.40;;;;;;5044601;28;20184;-91
2021/04/17 08:07:15;;;;;;;7.17;6.30;;;8.70;57.30;;;;;;5027835;28;20205;-90
2021/04/17 08:09:46;;;;;;;6.83;6.23;;;8.70;57.50;;;;;;5026305;28;20180;-90
2021/04/17 08:12:17;;;;;;;11.73;7.30;;;8.80;57.50;;;;;;5027565;28;20200;-89
2021/04/17 08:14:43;;;;;;;7.40;6.67;;;9.00;57.40;;;;;;5024986;28;20692;-89
2021/04/17 08:17:13;;;;;;;7.93;7.07;;;9.10;56.90;;;;;;5025000;28;20199;-89
2021/04/17 08:19:39;;;;;;;7.67;6.87;;;9.20;55.60;;;;;;5026674;28;20683;-90
2021/04/17 08:22:05;;;;;;;7.23;6.53;;;9.20;56.60;;;;;;5050346;28;20204;-88
2021/04/17 08:24:31;;;;;;;7.23;6.53;;;9.30;56.30;;;;;;5031376;28;20189;-88
2021/04/17 08:27:00;;;;;;;9.20;7.07;;;9.40;57.30;;;;;;5050842;28;20235;-88
2021/04/17 08:29:48;;;;;;;8.87;7.20;;;9.50;55.70;;;;;;5017120;28;20192;-88
2021/04/17 08:32:44;;;;;;;8.33;6.97;;;9.60;54.50;;;;;;5050148;28;20192;-88
2021/04/17 08:35:13;;;;;;;7.83;6.73;;;9.80;53.90;;;;;;5050735;28;20233;-88
2021/04/17 08:37:54;;;;;;;7.23;6.50;;;9.90;54.30;;;;;;5050505;28;20256;-88
2021/04/17 08:40:32;;;;;;;7.10;6.40;;;10.00;52.50;;;;;;5032515;28;20185;-88
2021/04/17 08:42:59;;;;;;;6.90;6.30;;;10.20;52.30;;;;;;5051273;28;20177;-88
2021/04/17 08:45:25;;;;;;;6.90;6.20;;;10.30;52.20;;;;;;5014442;28;20572;-87
2021/04/17 08:47:53;;;;;;;6.80;6.07;;;10.30;51.80;;;;;;5016636;28;20184;-88
2021/04/17 08:50:24;;;;;;;6.83;6.23;;;10.50;51.50;;;;;;5016617;28;20177;-89
2021/04/17 08:53:17;;;;;;;9.07;6.83;;;10.50;51.80;;;;;;5051735;28;20185;-89
2021/04/17 08:55:48;;;;;;;7.87;5.80;;;10.80;50.20;;;;;;5030627;28;20204;-89
2021/04/17 08:58:25;;;;;;;8.80;6.40;;;11.00;49.70;;;;;;5016149;28;20196;-90
2021/04/17 09:00:51;;;;;;;7.40;5.83;;;11.20;48.90;;;;;;5024293;28;20665;-87
2021/04/17 09:03:41;;;;;;;8.00;5.80;;;11.20;48.60;;;;;;5045854;28;20177;-88
2021/04/17 09:06:10;;;;;;;7.10;6.40;;;11.50;48.30;;;;;;5043404;28;20200;-89
2021/04/17 09:08:39;;;;;;;7.90;6.00;;;11.60;48.20;;;;;;5030973;28;20247;-90
2021/04/17 09:11:43;;;;;;;7.07;6.40;;;11.80;48.50;;;;;;5048658;28;20185;-90
2021/04/17 09:14:28;;;;;;;6.17;5.63;;;11.90;46.80;;;;;;4971395;28;20252;-88
2021/04/17 09:16:58;;;;;;;8.33;5.63;;;11.90;46.40;;;;;;4972770;29;20191;-90
2021/04/17 09:19:44;;;;;;;6.77;6.17;;;11.70;47.20;;;;;;5003383;28;20197;-87
2021/04/17 09:22:28;;;;;;;11.30;6.43;;;11.70;48.90;;;;;;5047099;28;20173;-87
2021/04/17 09:25:05;;;;;;;7.53;6.57;;;12.00;48.20;;;;;;5046855;28;20197;-87
2021/04/17 09:27:38;;;;;;;7.20;6.00;;;12.60;45.70;;;;;;5046951;28;20200;-87
2021/04/17 09:30:07;;;;;;;6.60;6.00;;;12.60;45.50;;;;;;5045965;28;20205;-87
2021/04/17 09:32:42;;;;;;;9.90;6.93;;;12.80;45.60;;;;;;5044362;28;20199;-87
2021/04/17 09:35:20;;;;;;;6.70;6.00;;;12.70;45.40;;;;;;5047765;28;20729;-87
2021/04/17 09:38:10;;;;;;;7.37;6.30;;;12.30;45.70;;;;;;5045935;28;20177;-87
2021/04/17 09:40:40;;;;;;;7.17;6.47;;;12.50;45.30;;;;;;5047524;28;20203;-90
2021/04/17 09:43:18;;;;;;;6.70;6.00;;;12.50;45.30;;;;;;5054032;28;20167;-90
2021/04/17 09:45:45;;;;;;;7.20;6.40;;;12.30;45.10;;;;;;5049324;28;20206;-89
2021/04/17 09:48:12;;;;;;;7.23;6.50;;;12.30;45.00;;;;;;5050342;28;20221;-87
2021/04/17 09:50:43;;;;;;;6.50;6.00;;;12.30;45.40;;;;;;5052331;28;20178;-89
2021/04/17 09:53:18;;;;;;;6.87;6.00;;;12.50;44.60;;;;;;5034456;28;20179;-89
2021/04/17 09:55:51;;;;;;;6.20;5.60;;;12.60;43.40;;;;;;5049078;28;20198;-89
2021/04/17 09:58:25;;;;;;;6.83;5.97;;;12.70;41.90;;;;;;5050657;28;20241;-88
2021/04/17 10:00:52;;;;;;;6.83;5.37;;;12.50;42.10;;;;;;5053120;28;20162;-90
2021/04/17 10:03:29;;;;;;;6.10;5.23;;;12.20;40.60;;;;;;5039859;28;20270;-91
2021/04/17 10:05:56;;;;;;;5.67;5.17;;;12.00;40.90;;;;;;5058035;28;20228;-90
2021/04/17 10:08:34;;;;;;;5.03;4.53;;;12.10;41.90;;;;;;5041167;28;20172;-90
2021/04/17 10:11:02;;;;;;;9.73;6.70;;;12.30;42.70;;;;;;5040878;28;20168;-92
2021/04/17 10:13:44;;;;;;;8.20;5.87;;;12.40;41.70;;;;;;5024537;28;20175;-91
2021/04/17 10:16:11;;;;;;;6.73;5.77;;;12.90;41.80;;;;;;5050389;23;20633;-85
2021/04/17 10:18:40;;;;;;;8.77;6.33;;;13.40;40.30;;;;;;5049637;28;20230;-84
2021/04/17 10:21:06;;;;;;;20.27;6.93;;;13.50;40.80;;;;;;5044904;28;20205;-83
2021/04/17 10:23:33;;;;;;;9.60;6.73;;;13.10;42.50;;;;;;5045997;28;20177;-83
2021/04/17 10:26:09;;;;;;;6.97;6.10;;;12.90;41.10;;;;;;5047660;28;20215;-83
2021/04/17 10:28:36;;;;;;;7.43;6.03;;;12.90;40.80;;;;;;5047001;28;20223;-83
2021/04/17 10:31:18;;;;;;;13.03;7.13;;;12.80;41.50;;;;;;5048354;28;20186;-84
2021/04/17 10:33:47;;;;;;;7.23;6.53;;;12.80;41.70;;;;;;5029461;28;20189;-82
2021/04/17 10:36:21;;;;;;;9.37;6.27;;;12.70;41.50;;;;;;5043967;28;20222;-82
2021/04/17 10:38:48;;;;;;;6.40;5.47;;;12.70;42.20;;;;;;5043222;28;20687;-82
2021/04/17 10:41:35;;;;;;;7.10;6.00;;;12.60;42.60;;;;;;5024807;28;20557;-84
2021/04/17 10:44:16;;;;;;;8.73;6.40;;;12.50;43.70;;;;;;5022039;28;20288;-83
2021/04/17 10:46:48;;;;;;;12.30;6.57;;;12.60;42.70;;;;;;5025755;28;20217;-82
2021/04/17 10:49:36;;;;;;;9.27;6.00;;;12.70;41.50;;;;;;5045838;28;20180;-83
2021/04/17 10:52:23;;;;;;;6.93;6.23;;;13.00;41.10;;;;;;5045331;28;20598;-83
2021/04/17 10:54:56;;;;;;;6.97;6.27;;;13.40;40.70;;;;;;5049577;28;20242;-81
2021/04/17 10:57:23;;;;;;;7.53;6.83;;;14.10;39.90;;;;;;5052256;28;20208;-82
2021/04/17 11:00:05;;;;;;;9.43;6.83;;;14.00;38.50;;;;;;5044097;28;20196;-81
2021/04/17 11:02:34;;;;;;;8.67;6.40;;;13.70;38.90;;;;;;5029625;28;20167;-83
2021/04/17 11:05:04;;;;;;;6.83;6.23;;;13.50;39.20;;;;;;5054048;28;20189;-82
2021/04/17 11:07:30;;;;;;;6.40;5.47;;;13.50;39.40;;;;;;5047962;28;20230;-82
2021/04/17 11:09:55;;;;;;;7.27;5.67;;;13.40;39.70;;;;;;5047489;28;20222;-81
2021/04/17 11:12:28;;;;;;;6.27;5.53;;;13.50;38.60;;;;;;5027759;28;20184;-84
2021/04/17 11:15:21;;;;;;;7.63;5.50;;;13.40;38.80;;;;;;5027129;28;20245;-83
2021/04/17 11:18:08;;;;;;;6.63;6.03;;;13.70;37.80;;;;;;5045448;28;20243;-83
2021/04/17 11:20:54;;;;;;;7.10;6.40;;;14.40;36.30;;;;;;5038087;28;20247;-84
2021/04/17 11:23:35;;;;;;;6.20;5.57;;;15.10;35.90;;;;;;5034609;28;20173;-85
2021/04/17 11:26:25;;;;;;;6.23;5.27;;;15.20;35.10;;;;;;5021265;28;20722;-83
2021/04/17 11:28:52;;;;;;;6.13;5.57;;;15.60;34.00;;;;;;5034027;28;20260;-84
2021/04/17 11:31:23;;;;;;;6.40;5.40;;;15.00;34.50;;;;;;5038702;28;20238;-87
2021/04/17 11:33:51;;;;;;;5.40;4.80;;;14.80;34.80;;;;;;5042809;28;20253;-85
2021/04/17 11:36:17;;;;;;;8.50;4.80;;;14.60;35.10;;;;;;5043632;28;20192;-85
2021/04/17 11:38:43;;;;;;;5.37;4.87;;;14.30;34.80;;;;;;5024915;28;20780;-84
2021/04/17 11:41:09;;;;;;;6.63;5.17;;;14.00;34.00;;;;;;5026913;28;20188;-85
2021/04/17 11:43:35;;;;;;;6.07;4.70;;;13.90;34.70;;;;;;5042691;28;20180;-86
2021/04/17 11:46:01;;;;;;;7.73;4.37;;;14.40;34.00;;;;;;5044350;28;20212;-85
2021/04/17 11:48:27;;;;;;;6.50;4.57;;;14.30;34.90;;;;;;5042035;28;20204;-85
2021/04/17 11:50:52;;;;;;;10.20;6.43;;;14.70;34.00;;;;;;5026648;28;20227;-85
2021/04/17 11:53:20;;;;;;;6.60;5.87;;;15.50;33.10;;;;;;5043523;28;20181;-86
2021/04/17 11:55:51;;;;;;;7.13;4.93;;;16.20;32.50;;;;;;5028761;28;20218;-87
2021/04/17 11:58:17;;;;;;;7.20;5.13;;;16.50;31.40;;;;;;5047164;28;20206;-87
2021/04/17 12:00:43;;;;;;;4.80;4.30;;;16.20;31.40;;;;;;5012843;28;20180;-87
2021/04/17 12:03:09;;;;;;;7.17;6.13;;;16.20;31.10;;;;;;5030872;28;20177;-84
2021/04/17 12:05:35;;;;;;;4.97;4.57;;;16.20;30.20;;;;;;5047061;28;20169;-86
2021/04/17 12:08:00;;;;;;;6.00;4.77;;;15.90;30.40;;;;;;5045509;28;20527;-84
2021/04/17 12:10:26;;;;;;;5.50;5.00;;;16.10;30.90;;;;;;5046034;28;20188;-87
2021/04/17 12:12:52;;;;;;;7.03;4.80;;;16.30;30.50;;;;;;5047731;28;20260;-87
2021/04/17 12:15:18;;;;;;;4.70;4.30;;;16.40;29.80;;;;;;5010063;28;20216;-88
2021/04/17 12:17:44;;;;;;;5.90;5.23;;;16.10;30.90;;;;;;5031280;28;20221;-89
2021/04/17 12:20:11;;;;;;;5.17;4.67;;;15.90;31.30;;;;;;5060709;28;20208;-88
2021/04/17 12:22:37;;;;;;;6.27;5.30;;;15.80;32.10;;;;;;5028845;28;20192;-89
2021/04/17 12:25:05;;;;;;;5.23;4.67;;;15.80;31.10;;;;;;5044656;28;20189;-88
2021/04/17 12:27:31;;;;;;;6.30;5.70;;;16.00;29.70;;;;;;5038615;28;20290;-88
2021/04/17 12:29:58;;;;;;;4.80;4.30;;;15.80;30.40;;;;;;5030682;28;20201;-88
2021/04/17 12:32:26;;;;;;;7.20;5.43;;;15.90;30.10;;;;;;5045103;28;20188;-88
2021/04/17 12:34:53;;;;;;;5.73;5.10;;;15.60;31.40;;;;;;5047669;28;20181;-88
2021/04/17 12:37:18;;;;;;;5.97;4.80;;;15.80;31.50;;;;;;5047817;28;20283;-87
2021/04/17 12:39:45;;;;;;;5.80;4.37;;;16.20;30.50;;;;;;5044474;28;20208;-87
2021/04/17 12:42:11;;;;;;;4.80;4.40;;;16.20;30.40;;;;;;5028183;28;20222;-86
2021/04/17 12:44:37;;;;;;;5.63;4.50;;;16.50;30.50;;;;;;5026616;28;20211;-87
2021/04/17 12:47:03;;;;;;;5.77;4.00;;;16.30;29.50;;;;;;5027814;28;20223;-87
2021/04/17 12:49:28;;;;;;;7.53;4.93;;;16.40;29.60;;;;;;5044141;28;20640;-85
2021/04/17 12:51:54;;;;;;;12.30;5.20;;;16.70;29.50;;;;;;5045921;28;20269;-84
2021/04/17 12:54:20;;;;;;;5.30;4.47;;;16.80;29.40;;;;;;5047063;28;20191;-86
2021/04/17 12:56:45;;;;;;;4.87;4.37;;;17.00;29.40;;;;;;5044833;28;20211;-85
2021/04/17 12:59:11;;;;;;;5.13;4.50;;;17.10;29.40;;;;;;5044894;28;20192;-85
2021/04/17 13:01:37;;;;;;;4.13;3.73;;;17.60;28.00;;;;;;5046735;28;20666;-86
2021/04/17 13:04:02;;;;;;;6.17;4.73;;;18.10;29.00;;;;;;5012007;28;20224;-85
2021/04/17 13:06:29;;;;;;;5.20;4.77;;;17.80;27.80;;;;;;5029472;28;20218;-85
2021/04/17 13:08:57;;;;;;;14.23;5.60;;;18.00;28.00;;;;;;5027354;28;20574;-84